sensor_id;sensor_type;location;lat;lon;timestamp;P1;durP1;ratioP1;P2;durP2;ratioP2
7316;SDS011;3699;51.462;6.696;2023-06-14T00:00:35;9.30;;;7.30;;
7316;SDS011;3699;51.462;6.696;2023-06-14T00:03:04;7.33;;;6.57;;
7316;SDS011;3699;51.462;6.696;2023-06-14T00:05:31;9.60;;;7.13;;
7316;SDS011;3699;51.462;6.696;2023-06-14T00:08:00;8.87;;;6.80;;
7316;SDS011;3699;51.462;6.696;2023-06-14T00:10:26;8.03;;;6.63;;
7316;SDS011;3699;51.462;6.696;2023-06-14T00:12:56;9.83;;;6.60;;
7316;SDS011;3699;51.462;6.696;2023-06-14T00:15:24;7.90;;;6.67;;
7316;SDS011;3699;51.462;6.696;2023-06-14T00:17:51;10.07;;;6.80;;
7316;SDS011;3699;51.462;6.696;2023-06-14T00:20:19;9.70;;;7.30;;
7316;SDS011;3699;51.462;6.696;2023-06-14T00:22:46;8.20;;;6.50;;
7316;SDS011;3699;51.462;6.696;2023-06-14T00:25:14;9.00;;;6.53;;
7316;SDS011;3699;51.462;6.696;2023-06-14T00:27:41;8.27;;;6.33;;
7316;SDS011;3699;51.462;6.696;2023-06-14T00:30:08;8.17;;;7.27;;
7316;SDS011;3699;51.462;6.696;2023-06-14T00:32:35;9.27;;;7.47;;
7316;SDS011;3699;51.462;6.696;2023-06-14T00:35:02;8.63;;;7.17;;
7316;SDS011;3699;51.462;6.696;2023-06-14T00:37:29;8.47;;;6.30;;
7316;SDS011;3699;51.462;6.696;2023-06-14T00:39:56;9.97;;;6.73;;
7316;SDS011;3699;51.462;6.696;2023-06-14T00:42:24;8.40;;;6.87;;
7316;SDS011;3699;51.462;6.696;2023-06-14T00:44:51;8.93;;;7.10;;
7316;SDS011;3699;51.462;6.696;2023-06-14T00:47:18;6.60;;;5.90;;
7316;SDS011;3699;51.462;6.696;2023-06-14T00:49:45;7.33;;;6.63;;
7316;SDS011;3699;51.462;6.696;2023-06-14T00:52:13;9.43;;;6.80;;
7316;SDS011;3699;51.462;6.696;2023-06-14T00:54:41;8.57;;;6.63;;
7316;SDS011;3699;51.462;6.696;2023-06-14T00:57:08;10.03;;;8.03;;
7316;SDS011;3699;51.462;6.696;2023-06-14T00:59:40;9.30;;;7.03;;
7316;SDS011;3699;51.462;6.696;2023-06-14T01:02:09;11.83;;;7.03;;
7316;SDS011;3699;51.462;6.696;2023-06-14T01:04:35;14.07;;;6.70;;
7316;SDS011;3699;51.462;6.696;2023-06-14T01:07:05;15.47;;;6.83;;
7316;SDS011;3699;51.462;6.696;2023-06-14T01:09:43;11.23;;;6.50;;
7316;SDS011;3699;51.462;6.696;2023-06-14T01:12:21;9.10;;;7.30;;
7316;SDS011;3699;51.462;6.696;2023-06-14T01:14:52;9.47;;;6.57;;
7316;SDS011;3699;51.462;6.696;2023-06-14T01:17:21;9.70;;;6.63;;
7316;SDS011;3699;51.462;6.696;2023-06-14T01:19:48;8.07;;;6.30;;
7316;SDS011;3699;51.462;6.696;2023-06-14T01:22:22;11.20;;;7.47;;
7316;SDS011;3699;51.462;6.696;2023-06-14T01:24:51;7.20;;;6.30;;
7316;SDS011;3699;51.462;6.696;2023-06-14T01:27:20;14.30;;;7.17;;
7316;SDS011;3699;51.462;6.696;2023-06-14T01:29:48;8.37;;;5.97;;
7316;SDS011;3699;51.462;6.696;2023-06-14T01:32:16;9.33;;;6.40;;
7316;SDS011;3699;51.462;6.696;2023-06-14T01:34:44;6.53;;;5.83;;
7316;SDS011;3699;51.462;6.696;2023-06-14T01:37:11;8.00;;;5.87;;
7316;SDS011;3699;51.462;6.696;2023-06-14T01:39:39;7.33;;;5.57;;
7316;SDS011;3699;51.462;6.696;2023-06-14T01:42:08;7.60;;;6.43;;
7316;SDS011;3699;51.462;6.696;2023-06-14T01:44:36;9.00;;;6.63;;
7316;SDS011;3699;51.462;6.696;2023-06-14T01:47:03;8.03;;;5.63;;
7316;SDS011;3699;51.462;6.696;2023-06-14T01:49:33;11.63;;;5.73;;
7316;SDS011;3699;51.462;6.696;2023-06-14T01:51:59;11.13;;;6.13;;
7316;SDS011;3699;51.462;6.696;2023-06-14T01:54:26;7.80;;;6.20;;
7316;SDS011;3699;51.462;6.696;2023-06-14T01:56:54;12.67;;;6.33;;
7316;SDS011;3699;51.462;6.696;2023-06-14T01:59:22;9.17;;;6.23;;
7316;SDS011;3699;51.462;6.696;2023-06-14T02:01:49;12.27;;;6.67;;
7316;SDS011;3699;51.462;6.696;2023-06-14T02:04:16;9.93;;;5.87;;
7316;SDS011;3699;51.462;6.696;2023-06-14T02:06:43;9.07;;;5.60;;
7316;SDS011;3699;51.462;6.696;2023-06-14T02:09:09;6.47;;;5.83;;
7316;SDS011;3699;51.462;6.696;2023-06-14T02:11:36;11.00;;;6.57;;
7316;SDS011;3699;51.462;6.696;2023-06-14T02:14:03;9.17;;;6.00;;
7316;SDS011;3699;51.462;6.696;2023-06-14T02:16:33;6.67;;;5.57;;
7316;SDS011;3699;51.462;6.696;2023-06-14T02:19:00;8.87;;;5.70;;
7316;SDS011;3699;51.462;6.696;2023-06-14T02:21:27;9.27;;;6.03;;
7316;SDS011;3699;51.462;6.696;2023-06-14T02:23:54;10.93;;;6.07;;
7316;SDS011;3699;51.462;6.696;2023-06-14T02:26:21;8.63;;;6.33;;
7316;SDS011;3699;51.462;6.696;2023-06-14T02:28:48;10.90;;;5.60;;
7316;SDS011;3699;51.462;6.696;2023-06-14T02:31:15;7.37;;;6.00;;
7316;SDS011;3699;51.462;6.696;2023-06-14T02:33:43;9.13;;;6.20;;
7316;SDS011;3699;51.462;6.696;2023-06-14T02:36:10;8.63;;;5.20;;
7316;SDS011;3699;51.462;6.696;2023-06-14T02:38:37;10.70;;;5.67;;
7316;SDS011;3699;51.462;6.696;2023-06-14T02:41:03;11.03;;;5.60;;
7316;SDS011;3699;51.462;6.696;2023-06-14T02:43:31;7.60;;;5.83;;
7316;SDS011;3699;51.462;6.696;2023-06-14T02:45:57;12.43;;;6.20;;
7316;SDS011;3699;51.462;6.696;2023-06-14T02:48:24;8.10;;;5.60;;
7316;SDS011;3699;51.462;6.696;2023-06-14T02:50:52;7.90;;;5.50;;
7316;SDS011;3699;51.462;6.696;2023-06-14T02:53:19;10.47;;;5.43;;
7316;SDS011;3699;51.462;6.696;2023-06-14T02:55:46;18.90;;;6.00;;
7316;SDS011;3699;51.462;6.696;2023-06-14T02:58:13;8.40;;;5.40;;
7316;SDS011;3699;51.462;6.696;2023-06-14T03:00:41;7.07;;;5.07;;
7316;SDS011;3699;51.462;6.696;2023-06-14T03:03:08;6.70;;;5.50;;
7316;SDS011;3699;51.462;6.696;2023-06-14T03:05:38;6.60;;;5.90;;
7316;SDS011;3699;51.462;6.696;2023-06-14T03:08:12;7.30;;;5.70;;
7316;SDS011;3699;51.462;6.696;2023-06-14T03:10:41;9.63;;;5.77;;
7316;SDS011;3699;51.462;6.696;2023-06-14T03:13:09;8.50;;;5.93;;
7316;SDS011;3699;51.462;6.696;2023-06-14T03:15:37;13.07;;;5.47;;
7316;SDS011;3699;51.462;6.696;2023-06-14T03:18:06;6.70;;;5.10;;
7316;SDS011;3699;51.462;6.696;2023-06-14T03:20:34;8.07;;;5.20;;
7316;SDS011;3699;51.462;6.696;2023-06-14T03:23:01;6.87;;;5.50;;
7316;SDS011;3699;51.462;6.696;2023-06-14T03:25:29;8.60;;;5.70;;
7316;SDS011;3699;51.462;6.696;2023-06-14T03:27:58;9.90;;;7.10;;
7316;SDS011;3699;51.462;6.696;2023-06-14T03:30:24;6.73;;;5.30;;
7316;SDS011;3699;51.462;6.696;2023-06-14T03:32:51;8.37;;;5.93;;
7316;SDS011;3699;51.462;6.696;2023-06-14T03:35:20;18.93;;;6.33;;
7316;SDS011;3699;51.462;6.696;2023-06-14T03:37:47;10.63;;;5.43;;
7316;SDS011;3699;51.462;6.696;2023-06-14T03:40:15;7.40;;;5.57;;
7316;SDS011;3699;51.462;6.696;2023-06-14T03:42:45;14.23;;;5.43;;
7316;SDS011;3699;51.462;6.696;2023-06-14T03:45:12;6.07;;;5.13;;
7316;SDS011;3699;51.462;6.696;2023-06-14T03:47:38;6.07;;;4.87;;
7316;SDS011;3699;51.462;6.696;2023-06-14T03:50:05;10.10;;;6.23;;
7316;SDS011;3699;51.462;6.696;2023-06-14T03:52:33;8.17;;;5.40;;
7316;SDS011;3699;51.462;6.696;2023-06-14T03:54:59;6.47;;;5.17;;
7316;SDS011;3699;51.462;6.696;2023-06-14T03:57:26;5.33;;;4.57;;
7316;SDS011;3699;51.462;6.696;2023-06-14T03:59:54;5.77;;;4.73;;
7316;SDS011;3699;51.462;6.696;2023-06-14T04:02:21;5.63;;;5.00;;
7316;SDS011;3699;51.462;6.696;2023-06-14T04:04:48;5.23;;;4.27;;
7316;SDS011;3699;51.462;6.696;2023-06-14T04:07:16;7.00;;;5.10;;
7316;SDS011;3699;51.462;6.696;2023-06-14T04:09:44;9.83;;;5.10;;
7316;SDS011;3699;51.462;6.696;2023-06-14T04:12:11;9.50;;;5.23;;
7316;SDS011;3699;51.462;6.696;2023-06-14T04:14:38;7.20;;;4.20;;
7316;SDS011;3699;51.462;6.696;2023-06-14T04:17:06;10.13;;;5.07;;
7316;SDS011;3699;51.462;6.696;2023-06-14T04:19:33;12.27;;;5.37;;
7316;SDS011;3699;51.462;6.696;2023-06-14T04:22:00;7.43;;;4.57;;
7316;SDS011;3699;51.462;6.696;2023-06-14T04:24:27;8.53;;;4.90;;
7316;SDS011;3699;51.462;6.696;2023-06-14T04:26:57;4.87;;;4.47;;
7316;SDS011;3699;51.462;6.696;2023-06-14T04:29:24;6.90;;;4.90;;
7316;SDS011;3699;51.462;6.696;2023-06-14T04:31:53;5.83;;;4.80;;
7316;SDS011;3699;51.462;6.696;2023-06-14T04:34:25;8.87;;;4.93;;
7316;SDS011;3699;51.462;6.696;2023-06-14T04:36:54;4.70;;;4.27;;
7316;SDS011;3699;51.462;6.696;2023-06-14T04:39:22;8.50;;;4.27;;
7316;SDS011;3699;51.462;6.696;2023-06-14T04:41:50;6.10;;;3.93;;
7316;SDS011;3699;51.462;6.696;2023-06-14T04:44:17;17.10;;;5.00;;
7316;SDS011;3699;51.462;6.696;2023-06-14T04:46:45;5.63;;;4.37;;
7316;SDS011;3699;51.462;6.696;2023-06-14T04:49:12;5.93;;;4.43;;
7316;SDS011;3699;51.462;6.696;2023-06-14T04:51:41;9.97;;;5.17;;
7316;SDS011;3699;51.462;6.696;2023-06-14T04:54:08;7.00;;;4.83;;
7316;SDS011;3699;51.462;6.696;2023-06-14T04:56:38;8.57;;;4.30;;
7316;SDS011;3699;51.462;6.696;2023-06-14T04:59:05;6.87;;;4.43;;
7316;SDS011;3699;51.462;6.696;2023-06-14T05:01:32;8.47;;;4.20;;
7316;SDS011;3699;51.462;6.696;2023-06-14T05:03:59;6.33;;;4.40;;
7316;SDS011;3699;51.462;6.696;2023-06-14T05:06:26;9.87;;;4.70;;
7316;SDS011;3699;51.462;6.696;2023-06-14T05:08:54;6.80;;;4.30;;
7316;SDS011;3699;51.462;6.696;2023-06-14T05:11:21;6.43;;;4.37;;
7316;SDS011;3699;51.462;6.696;2023-06-14T05:13:49;13.37;;;4.43;;
7316;SDS011;3699;51.462;6.696;2023-06-14T05:16:16;8.90;;;4.23;;
7316;SDS011;3699;51.462;6.696;2023-06-14T05:18:44;8.67;;;4.80;;
7316;SDS011;3699;51.462;6.696;2023-06-14T05:21:13;7.47;;;4.60;;
7316;SDS011;3699;51.462;6.696;2023-06-14T05:23:42;8.57;;;4.93;;
7316;SDS011;3699;51.462;6.696;2023-06-14T05:26:10;12.03;;;4.97;;
7316;SDS011;3699;51.462;6.696;2023-06-14T05:28:37;8.03;;;4.80;;
7316;SDS011;3699;51.462;6.696;2023-06-14T05:31:04;8.53;;;4.80;;
7316;SDS011;3699;51.462;6.696;2023-06-14T05:33:31;10.77;;;5.10;;
7316;SDS011;3699;51.462;6.696;2023-06-14T05:35:57;7.43;;;5.00;;
7316;SDS011;3699;51.462;6.696;2023-06-14T05:38:24;6.40;;;4.57;;
7316;SDS011;3699;51.462;6.696;2023-06-14T05:40:51;12.50;;;5.13;;
7316;SDS011;3699;51.462;6.696;2023-06-14T05:43:20;10.70;;;4.90;;
7316;SDS011;3699;51.462;6.696;2023-06-14T05:45:47;11.37;;;4.93;;
7316;SDS011;3699;51.462;6.696;2023-06-14T05:48:13;8.63;;;4.50;;
7316;SDS011;3699;51.462;6.696;2023-06-14T05:50:40;8.82;;;4.90;;
7316;SDS011;3699;51.462;6.696;2023-06-14T05:53:07;12.93;;;4.47;;
7316;SDS011;3699;51.462;6.696;2023-06-14T05:55:33;7.03;;;4.85;;
7316;SDS011;3699;51.462;6.696;2023-06-14T05:58:01;6.47;;;4.73;;
7316;SDS011;3699;51.462;6.696;2023-06-14T06:00:29;6.60;;;3.90;;
7316;SDS011;3699;51.462;6.696;2023-06-14T06:02:56;6.90;;;4.40;;
7316;SDS011;3699;51.462;6.696;2023-06-14T06:05:23;4.70;;;4.28;;
7316;SDS011;3699;51.462;6.696;2023-06-14T06:07:49;6.78;;;4.57;;
7316;SDS011;3699;51.462;6.696;2023-06-14T06:10:16;7.85;;;5.68;;
7316;SDS011;3699;51.462;6.696;2023-06-14T06:12:43;6.13;;;4.05;;
7316;SDS011;3699;51.462;6.696;2023-06-14T06:15:12;8.52;;;4.30;;
7316;SDS011;3699;51.462;6.696;2023-06-14T06:17:40;13.57;;;4.70;;
7316;SDS011;3699;51.462;6.696;2023-06-14T06:20:07;10.32;;;5.20;;
7316;SDS011;3699;51.462;6.696;2023-06-14T06:22:35;6.80;;;4.72;;
7316;SDS011;3699;51.462;6.696;2023-06-14T06:25:01;8.55;;;4.53;;
7316;SDS011;3699;51.462;6.696;2023-06-14T06:27:28;6.07;;;4.32;;
7316;SDS011;3699;51.462;6.696;2023-06-14T06:29:55;7.32;;;4.45;;
7316;SDS011;3699;51.462;6.696;2023-06-14T06:32:22;8.38;;;4.30;;
7316;SDS011;3699;51.462;6.696;2023-06-14T06:34:50;9.88;;;3.83;;
7316;SDS011;3699;51.462;6.696;2023-06-14T06:37:17;7.68;;;3.75;;
7316;SDS011;3699;51.462;6.696;2023-06-14T06:39:45;8.45;;;3.80;;
7316;SDS011;3699;51.462;6.696;2023-06-14T06:42:12;5.90;;;3.90;;
7316;SDS011;3699;51.462;6.696;2023-06-14T06:44:40;4.85;;;3.60;;
7316;SDS011;3699;51.462;6.696;2023-06-14T06:47:06;5.38;;;3.63;;
7316;SDS011;3699;51.462;6.696;2023-06-14T06:49:34;5.45;;;3.67;;
7316;SDS011;3699;51.462;6.696;2023-06-14T06:52:03;7.18;;;3.38;;
7316;SDS011;3699;51.462;6.696;2023-06-14T06:54:31;4.68;;;3.13;;
7316;SDS011;3699;51.462;6.696;2023-06-14T06:56:58;4.75;;;3.58;;
7316;SDS011;3699;51.462;6.696;2023-06-14T06:59:26;4.70;;;3.40;;
7316;SDS011;3699;51.462;6.696;2023-06-14T07:01:53;5.05;;;2.92;;
7316;SDS011;3699;51.462;6.696;2023-06-14T07:04:20;5.03;;;3.10;;
7316;SDS011;3699;51.462;6.696;2023-06-14T07:06:47;5.15;;;3.33;;
7316;SDS011;3699;51.462;6.696;2023-06-14T07:09:15;6.00;;;2.92;;
7316;SDS011;3699;51.462;6.696;2023-06-14T07:11:43;8.15;;;2.97;;
7316;SDS011;3699;51.462;6.696;2023-06-14T07:14:10;4.97;;;2.85;;
7316;SDS011;3699;51.462;6.696;2023-06-14T07:16:37;4.22;;;2.58;;
7316;SDS011;3699;51.462;6.696;2023-06-14T07:19:04;3.35;;;2.63;;
7316;SDS011;3699;51.462;6.696;2023-06-14T07:21:30;4.25;;;2.78;;
7316;SDS011;3699;51.462;6.696;2023-06-14T07:23:57;6.88;;;2.60;;
7316;SDS011;3699;51.462;6.696;2023-06-14T07:26:25;5.43;;;2.60;;
7316;SDS011;3699;51.462;6.696;2023-06-14T07:28:52;3.40;;;2.50;;
7316;SDS011;3699;51.462;6.696;2023-06-14T07:31:19;3.03;;;2.72;;
7316;SDS011;3699;51.462;6.696;2023-06-14T07:33:46;6.10;;;3.03;;
7316;SDS011;3699;51.462;6.696;2023-06-14T07:36:13;4.43;;;2.60;;
7316;SDS011;3699;51.462;6.696;2023-06-14T07:38:40;5.77;;;2.77;;
7316;SDS011;3699;51.462;6.696;2023-06-14T07:41:07;4.63;;;2.75;;
7316;SDS011;3699;51.462;6.696;2023-06-14T07:43:35;3.50;;;2.60;;
7316;SDS011;3699;51.462;6.696;2023-06-14T07:46:02;3.80;;;2.70;;
7316;SDS011;3699;51.462;6.696;2023-06-14T07:48:28;2.77;;;2.47;;
7316;SDS011;3699;51.462;6.696;2023-06-14T07:50:55;6.27;;;2.93;;
7316;SDS011;3699;51.462;6.696;2023-06-14T07:53:22;7.67;;;3.90;;
7316;SDS011;3699;51.462;6.696;2023-06-14T07:55:48;3.50;;;2.90;;
7316;SDS011;3699;51.462;6.696;2023-06-14T07:58:16;7.43;;;3.10;;
7316;SDS011;3699;51.462;6.696;2023-06-14T08:00:44;3.40;;;2.73;;
7316;SDS011;3699;51.462;6.696;2023-06-14T08:03:11;5.93;;;3.00;;
7316;SDS011;3699;51.462;6.696;2023-06-14T08:05:37;4.70;;;3.00;;
7316;SDS011;3699;51.462;6.696;2023-06-14T08:08:04;5.03;;;2.83;;
7316;SDS011;3699;51.462;6.696;2023-06-14T08:10:31;3.60;;;2.60;;
7316;SDS011;3699;51.462;6.696;2023-06-14T08:12:58;6.43;;;2.80;;
7316;SDS011;3699;51.462;6.696;2023-06-14T08:15:25;3.53;;;2.90;;
7316;SDS011;3699;51.462;6.696;2023-06-14T08:17:53;4.23;;;2.60;;
7316;SDS011;3699;51.462;6.696;2023-06-14T08:20:19;3.80;;;2.67;;
7316;SDS011;3699;51.462;6.696;2023-06-14T08:22:46;3.30;;;3.00;;
7316;SDS011;3699;51.462;6.696;2023-06-14T08:25:13;4.63;;;3.13;;
7316;SDS011;3699;51.462;6.696;2023-06-14T08:27:40;3.20;;;2.90;;
7316;SDS011;3699;51.462;6.696;2023-06-14T08:30:07;4.50;;;2.60;;
7316;SDS011;3699;51.462;6.696;2023-06-14T08:32:35;8.20;;;3.40;;
7316;SDS011;3699;51.462;6.696;2023-06-14T08:35:03;3.70;;;2.80;;
7316;SDS011;3699;51.462;6.696;2023-06-14T08:37:32;4.95;;;2.97;;
7316;SDS011;3699;51.462;6.696;2023-06-14T08:39:59;3.33;;;3.03;;
7316;SDS011;3699;51.462;6.696;2023-06-14T08:42:26;4.73;;;2.70;;
7316;SDS011;3699;51.462;6.696;2023-06-14T08:44:52;6.30;;;2.80;;
7316;SDS011;3699;51.462;6.696;2023-06-14T08:47:19;3.22;;;2.80;;
7316;SDS011;3699;51.462;6.696;2023-06-14T08:49:49;4.72;;;3.20;;
7316;SDS011;3699;51.462;6.696;2023-06-14T08:52:17;3.13;;;2.80;;
7316;SDS011;3699;51.462;6.696;2023-06-14T08:54:47;3.63;;;2.85;;
7316;SDS011;3699;51.462;6.696;2023-06-14T08:57:15;7.50;;;2.80;;
7316;SDS011;3699;51.462;6.696;2023-06-14T08:59:45;4.88;;;3.17;;
7316;SDS011;3699;51.462;6.696;2023-06-14T09:02:14;3.85;;;3.00;;
7316;SDS011;3699;51.462;6.696;2023-06-14T09:04:43;4.90;;;2.88;;
7316;SDS011;3699;51.462;6.696;2023-06-14T09:07:09;4.75;;;2.67;;
7316;SDS011;3699;51.462;6.696;2023-06-14T09:09:39;7.13;;;3.08;;
7316;SDS011;3699;51.462;6.696;2023-06-14T09:12:07;5.85;;;3.08;;
7316;SDS011;3699;51.462;6.696;2023-06-14T09:14:36;4.15;;;3.33;;
7316;SDS011;3699;51.462;6.696;2023-06-14T09:17:06;7.35;;;3.55;;
7316;SDS011;3699;51.462;6.696;2023-06-14T09:19:33;4.57;;;2.92;;
7316;SDS011;3699;51.462;6.696;2023-06-14T09:22:01;3.38;;;3.10;;
7316;SDS011;3699;51.462;6.696;2023-06-14T09:24:29;4.03;;;2.97;;
7316;SDS011;3699;51.462;6.696;2023-06-14T09:26:57;3.97;;;2.53;;
7316;SDS011;3699;51.462;6.696;2023-06-14T09:29:24;4.43;;;2.80;;
7316;SDS011;3699;51.462;6.696;2023-06-14T09:31:52;3.40;;;3.10;;
7316;SDS011;3699;51.462;6.696;2023-06-14T09:34:19;6.75;;;3.00;;
7316;SDS011;3699;51.462;6.696;2023-06-14T09:36:48;3.33;;;2.78;;
7316;SDS011;3699;51.462;6.696;2023-06-14T09:39:16;5.70;;;2.70;;
7316;SDS011;3699;51.462;6.696;2023-06-14T09:41:44;4.30;;;3.17;;
7316;SDS011;3699;51.462;6.696;2023-06-14T09:44:12;4.10;;;2.50;;
7316;SDS011;3699;51.462;6.696;2023-06-14T09:46:38;3.20;;;2.40;;
7316;SDS011;3699;51.462;6.696;2023-06-14T09:49:05;4.93;;;2.80;;
7316;SDS011;3699;51.462;6.696;2023-06-14T09:51:33;3.03;;;2.72;;
7316;SDS011;3699;51.462;6.696;2023-06-14T09:54:03;5.68;;;2.58;;
7316;SDS011;3699;51.462;6.696;2023-06-14T09:56:31;5.03;;;2.53;;
7316;SDS011;3699;51.462;6.696;2023-06-14T09:59:04;6.18;;;2.90;;
7316;SDS011;3699;51.462;6.696;2023-06-14T10:01:34;2.50;;;2.30;;
7316;SDS011;3699;51.462;6.696;2023-06-14T10:04:06;2.40;;;2.20;;
7316;SDS011;3699;51.462;6.696;2023-06-14T10:06:35;3.67;;;2.30;;
7316;SDS011;3699;51.462;6.696;2023-06-14T10:09:03;2.60;;;2.27;;
7316;SDS011;3699;51.462;6.696;2023-06-14T10:11:33;6.47;;;2.20;;
7316;SDS011;3699;51.462;6.696;2023-06-14T10:14:01;5.20;;;2.30;;
7316;SDS011;3699;51.462;6.696;2023-06-14T10:16:30;2.70;;;2.17;;
7316;SDS011;3699;51.462;6.696;2023-06-14T10:19:03;2.87;;;2.20;;
7316;SDS011;3699;51.462;6.696;2023-06-14T10:21:37;7.18;;;2.22;;
7316;SDS011;3699;51.462;6.696;2023-06-14T10:24:14;2.13;;;1.90;;
7316;SDS011;3699;51.462;6.696;2023-06-14T10:26:49;3.70;;;1.80;;
7316;SDS011;3699;51.462;6.696;2023-06-14T10:29:17;4.40;;;1.90;;
7316;SDS011;3699;51.462;6.696;2023-06-14T10:31:46;1.80;;;1.70;;
7316;SDS011;3699;51.462;6.696;2023-06-14T10:34:21;3.63;;;1.80;;
7316;SDS011;3699;51.462;6.696;2023-06-14T10:37:04;4.82;;;2.03;;
7316;SDS011;3699;51.462;6.696;2023-06-14T10:39:33;2.35;;;2.15;;
7316;SDS011;3699;51.462;6.696;2023-06-14T10:42:05;3.93;;;1.93;;
7316;SDS011;3699;51.462;6.696;2023-06-14T10:44:38;3.40;;;2.00;;
7316;SDS011;3699;51.462;6.696;2023-06-14T10:47:11;3.03;;;2.33;;
7316;SDS011;3699;51.462;6.696;2023-06-14T10:49:49;4.90;;;2.07;;
7316;SDS011;3699;51.462;6.696;2023-06-14T10:52:20;3.97;;;2.40;;
7316;SDS011;3699;51.462;6.696;2023-06-14T10:57:40;6.77;;;2.10;;
7316;SDS011;3699;51.462;6.696;2023-06-14T11:00:08;2.00;;;1.90;;
7316;SDS011;3699;51.462;6.696;2023-06-14T11:05:49;3.73;;;2.00;;
7316;SDS011;3699;51.462;6.696;2023-06-14T11:11:21;2.47;;;1.60;;
7316;SDS011;3699;51.462;6.696;2023-06-14T11:13:48;2.33;;;1.60;;
7316;SDS011;3699;51.462;6.696;2023-06-14T11:16:17;3.03;;;2.23;;
7316;SDS011;3699;51.462;6.696;2023-06-14T11:18:46;7.40;;;1.90;;
7316;SDS011;3699;51.462;6.696;2023-06-14T11:21:15;7.07;;;1.80;;
7316;SDS011;3699;51.462;6.696;2023-06-14T11:23:43;2.77;;;1.70;;
7316;SDS011;3699;51.462;6.696;2023-06-14T11:26:15;3.30;;;1.93;;
7316;SDS011;3699;51.462;6.696;2023-06-14T11:28:42;4.97;;;1.73;;
7316;SDS011;3699;51.462;6.696;2023-06-14T11:31:08;7.53;;;1.95;;
7316;SDS011;3699;51.462;6.696;2023-06-14T11:33:35;3.80;;;1.80;;
7316;SDS011;3699;51.462;6.696;2023-06-14T11:36:04;7.20;;;2.10;;
7316;SDS011;3699;51.462;6.696;2023-06-14T11:38:34;4.93;;;1.90;;
7316;SDS011;3699;51.462;6.696;2023-06-14T11:41:02;5.87;;;1.83;;
7316;SDS011;3699;51.462;6.696;2023-06-14T11:43:29;5.87;;;2.00;;
7316;SDS011;3699;51.462;6.696;2023-06-14T11:45:57;3.30;;;1.90;;
7316;SDS011;3699;51.462;6.696;2023-06-14T11:48:35;10.77;;;2.10;;
7316;SDS011;3699;51.462;6.696;2023-06-14T11:51:03;5.50;;;1.90;;
7316;SDS011;3699;51.462;6.696;2023-06-14T11:53:30;4.80;;;1.80;;
7316;SDS011;3699;51.462;6.696;2023-06-14T11:55:57;3.33;;;1.73;;
7316;SDS011;3699;51.462;6.696;2023-06-14T11:58:25;5.60;;;2.15;;
7316;SDS011;3699;51.462;6.696;2023-06-14T12:00:52;6.70;;;1.70;;
7316;SDS011;3699;51.462;6.696;2023-06-14T12:03:22;2.03;;;1.90;;
7316;SDS011;3699;51.462;6.696;2023-06-14T12:05:50;2.87;;;2.00;;
7316;SDS011;3699;51.462;6.696;2023-06-14T12:08:21;2.03;;;1.70;;
7316;SDS011;3699;51.462;6.696;2023-06-14T12:10:58;4.50;;;1.73;;
7316;SDS011;3699;51.462;6.696;2023-06-14T12:13:25;2.13;;;1.85;;
7316;SDS011;3699;51.462;6.696;2023-06-14T12:15:55;2.93;;;1.90;;
7316;SDS011;3699;51.462;6.696;2023-06-14T12:18:30;3.97;;;1.80;;
7316;SDS011;3699;51.462;6.696;2023-06-14T12:20:59;1.90;;;1.80;;
7316;SDS011;3699;51.462;6.696;2023-06-14T12:23:29;3.40;;;2.35;;
7316;SDS011;3699;51.462;6.696;2023-06-14T12:26:05;2.00;;;1.90;;
7316;SDS011;3699;51.462;6.696;2023-06-14T12:28:32;4.20;;;2.20;;
7316;SDS011;3699;51.462;6.696;2023-06-14T12:30:59;2.20;;;2.00;;
7316;SDS011;3699;51.462;6.696;2023-06-14T12:33:26;3.17;;;2.00;;
7316;SDS011;3699;51.462;6.696;2023-06-14T12:35:54;4.90;;;1.83;;
7316;SDS011;3699;51.462;6.696;2023-06-14T12:38:21;2.87;;;2.63;;
7316;SDS011;3699;51.462;6.696;2023-06-14T12:40:49;1.90;;;1.80;;
7316;SDS011;3699;51.462;6.696;2023-06-14T12:43:17;2.70;;;1.90;;
7316;SDS011;3699;51.462;6.696;2023-06-14T12:45:44;2.27;;;2.13;;
7316;SDS011;3699;51.462;6.696;2023-06-14T12:48:11;3.33;;;2.30;;
7316;SDS011;3699;51.462;6.696;2023-06-14T12:50:37;2.80;;;2.40;;
7316;SDS011;3699;51.462;6.696;2023-06-14T12:53:04;4.15;;;2.22;;
7316;SDS011;3699;51.462;6.696;2023-06-14T12:55:31;2.58;;;2.28;;
7316;SDS011;3699;51.462;6.696;2023-06-14T12:57:59;2.63;;;2.40;;
7316;SDS011;3699;51.462;6.696;2023-06-14T13:00:26;3.03;;;2.50;;
7316;SDS011;3699;51.462;6.696;2023-06-14T13:02:54;4.32;;;2.47;;
7316;SDS011;3699;51.462;6.696;2023-06-14T13:05:21;4.10;;;2.30;;
7316;SDS011;3699;51.462;6.696;2023-06-14T13:07:48;5.50;;;2.58;;
7316;SDS011;3699;51.462;6.696;2023-06-14T13:10:15;7.47;;;3.03;;
7316;SDS011;3699;51.462;6.696;2023-06-14T13:12:42;3.67;;;2.75;;
7316;SDS011;3699;51.462;6.696;2023-06-14T13:15:10;2.45;;;2.15;;
7316;SDS011;3699;51.462;6.696;2023-06-14T13:17:37;3.40;;;2.72;;
7316;SDS011;3699;51.462;6.696;2023-06-14T13:20:04;9.27;;;3.28;;
7316;SDS011;3699;51.462;6.696;2023-06-14T13:22:31;3.97;;;2.95;;
7316;SDS011;3699;51.462;6.696;2023-06-14T13:24:58;6.72;;;2.78;;
7316;SDS011;3699;51.462;6.696;2023-06-14T13:27:25;2.87;;;2.43;;
7316;SDS011;3699;51.462;6.696;2023-06-14T13:29:52;15.38;;;3.35;;
7316;SDS011;3699;51.462;6.696;2023-06-14T13:32:21;7.23;;;3.23;;
7316;SDS011;3699;51.462;6.696;2023-06-14T13:34:48;4.77;;;2.90;;
7316;SDS011;3699;51.462;6.696;2023-06-14T13:37:16;7.87;;;3.10;;
7316;SDS011;3699;51.462;6.696;2023-06-14T13:39:43;3.35;;;3.05;;
7316;SDS011;3699;51.462;6.696;2023-06-14T13:42:10;3.63;;;2.83;;
7316;SDS011;3699;51.462;6.696;2023-06-14T13:44:37;4.10;;;3.10;;
7316;SDS011;3699;51.462;6.696;2023-06-14T13:47:04;4.70;;;2.70;;
7316;SDS011;3699;51.462;6.696;2023-06-14T13:49:33;6.00;;;3.53;;
7316;SDS011;3699;51.462;6.696;2023-06-14T13:52:00;4.55;;;2.53;;
7316;SDS011;3699;51.462;6.696;2023-06-14T13:54:27;3.25;;;2.70;;
7316;SDS011;3699;51.462;6.696;2023-06-14T13:56:54;5.45;;;2.80;;
7316;SDS011;3699;51.462;6.696;2023-06-14T13:59:21;5.18;;;2.65;;
7316;SDS011;3699;51.462;6.696;2023-06-14T14:01:48;5.20;;;2.72;;
7316;SDS011;3699;51.462;6.696;2023-06-14T14:04:14;4.00;;;2.80;;
7316;SDS011;3699;51.462;6.696;2023-06-14T14:06:43;6.10;;;2.80;;
7316;SDS011;3699;51.462;6.696;2023-06-14T14:09:10;6.70;;;3.15;;
7316;SDS011;3699;51.462;6.696;2023-06-14T14:11:37;4.47;;;2.92;;
7316;SDS011;3699;51.462;6.696;2023-06-14T14:14:06;4.78;;;2.60;;
7316;SDS011;3699;51.462;6.696;2023-06-14T14:16:33;4.43;;;2.70;;
7316;SDS011;3699;51.462;6.696;2023-06-14T14:19:01;4.10;;;2.78;;
7316;SDS011;3699;51.462;6.696;2023-06-14T14:21:28;2.97;;;2.67;;
7316;SDS011;3699;51.462;6.696;2023-06-14T14:23:56;3.40;;;2.83;;
7316;SDS011;3699;51.462;6.696;2023-06-14T14:26:22;4.40;;;3.15;;
7316;SDS011;3699;51.462;6.696;2023-06-14T14:28:49;5.80;;;2.92;;
7316;SDS011;3699;51.462;6.696;2023-06-14T14:31:16;4.47;;;3.15;;
7316;SDS011;3699;51.462;6.696;2023-06-14T14:33:43;5.00;;;2.78;;
7316;SDS011;3699;51.462;6.696;2023-06-14T14:36:10;3.42;;;3.13;;
7316;SDS011;3699;51.462;6.696;2023-06-14T14:38:37;4.33;;;3.40;;
7316;SDS011;3699;51.462;6.696;2023-06-14T14:41:05;6.25;;;2.92;;
7316;SDS011;3699;51.462;6.696;2023-06-14T14:43:32;4.38;;;3.08;;
7316;SDS011;3699;51.462;6.696;2023-06-14T14:45:59;5.28;;;3.30;;
7316;SDS011;3699;51.462;6.696;2023-06-14T14:48:25;5.15;;;2.70;;
7316;SDS011;3699;51.462;6.696;2023-06-14T14:50:52;3.35;;;3.05;;
7316;SDS011;3699;51.462;6.696;2023-06-14T14:53:19;3.30;;;3.00;;
7316;SDS011;3699;51.462;6.696;2023-06-14T14:55:45;5.32;;;3.25;;
7316;SDS011;3699;51.462;6.696;2023-06-14T14:58:14;12.35;;;3.55;;
7316;SDS011;3699;51.462;6.696;2023-06-14T15:00:42;3.58;;;3.05;;
7316;SDS011;3699;51.462;6.696;2023-06-14T15:03:09;4.53;;;3.13;;
7316;SDS011;3699;51.462;6.696;2023-06-14T15:05:36;6.07;;;3.20;;
7316;SDS011;3699;51.462;6.696;2023-06-14T15:08:03;2.92;;;2.72;;
7316;SDS011;3699;51.462;6.696;2023-06-14T15:10:35;4.83;;;3.20;;
7316;SDS011;3699;51.462;6.696;2023-06-14T15:13:02;3.60;;;3.30;;
7316;SDS011;3699;51.462;6.696;2023-06-14T15:15:30;3.20;;;3.00;;
7316;SDS011;3699;51.462;6.696;2023-06-14T15:17:56;4.50;;;2.85;;
7316;SDS011;3699;51.462;6.696;2023-06-14T15:20:23;5.83;;;3.60;;
7316;SDS011;3699;51.462;6.696;2023-06-14T15:22:50;5.77;;;2.97;;
7316;SDS011;3699;51.462;6.696;2023-06-14T15:25:17;6.10;;;2.90;;
7316;SDS011;3699;51.462;6.696;2023-06-14T15:27:44;5.47;;;3.63;;